Time;durP1;ratioP1;P1;durP2;ratioP2;P2;SDS_P1;SDS_P2;PMS_P1;PMS_P2;Temp;Humidity;BMP_temperature;BMP_pressure;BME280_temperature;BME280_humidity;BME280_pressure;Samples;Min_cycle;Max_cycle;Signal;HPM_P1;HPM_P2
2023/10/20 00:00:40;;;;;;;;;;;23.30;97.90;;;;;;5115718;28;19920;-68
2023/10/20 00:03:06;;;;;;;;;;;23.40;97.60;;;;;;5101827;28;19924;-69
2023/10/20 00:05:34;;;;;;;;;;;23.40;97.40;;;;;;5096590;28;20049;-68
2023/10/20 00:08:01;;;;;;;;;;;23.40;97.40;;;;;;5115474;28;20041;-68
2023/10/20 00:10:31;;;;;;;;;;;23.40;97.40;;;;;;5115711;28;19912;-70
2023/10/20 00:12:59;;;;;;;;;;;23.40;97.10;;;;;;5106783;28;19911;-66
2023/10/20 00:15:26;;;;;;;;;;;23.50;97.60;;;;;;5116066;28;19930;-69
2023/10/20 00:17:53;;;;;;;;;;;23.60;97.40;;;;;;5115367;28;19908;-66
2023/10/20 00:20:20;;;;;;;;;;;23.60;97.60;;;;;;5115666;28;20006;-66
2023/10/20 00:22:46;;;;;;;;;;;23.80;97.00;;;;;;5104708;28;20315;-72
2023/10/20 00:25:13;;;;;;;;;;;24.00;96.70;;;;;;5115943;28;19943;-69
2023/10/20 00:27:43;;;;;;;;;;;24.10;96.20;;;;;;5111484;28;19951;-73
2023/10/20 00:30:10;;;;;;;;;;;24.20;96.30;;;;;;5124083;27;19912;-66
2023/10/20 00:32:45;;;;;;;;;;;24.30;96.10;;;;;;5104000;28;19912;-69
2023/10/20 00:35:15;;;;;;;;;;;24.40;95.70;;;;;;5104071;27;19923;-70
2023/10/20 00:37:41;;;;;;;;;;;24.50;95.40;;;;;;5133534;27;20272;-70
2023/10/20 00:40:09;;;;;;;;;;;24.50;95.70;;;;;;5114207;28;19977;-73
2023/10/20 00:42:36;;;;;;;;;;;24.70;94.90;;;;;;5113541;28;19916;-69
2023/10/20 00:45:04;;;;;;;;;;;24.70;94.70;;;;;;5113000;28;19944;-76
2023/10/20 00:47:31;;;;;;;;;;;24.80;94.80;;;;;;5113045;28;19995;-72
2023/10/20 00:49:59;;;;;;;;;;;24.80;95.10;;;;;;5103726;28;19923;-66
2023/10/20 00:52:26;;;;;;;;;;;24.80;94.50;;;;;;5101479;28;20475;-66
2023/10/20 00:54:53;;;;;;;;;;;25.00;94.50;;;;;;5106263;28;19920;-66
2023/10/20 00:57:20;;;;;;;;;;;25.10;94.20;;;;;;5106607;28;19942;-70
2023/10/20 00:59:46;;;;;;;;;;;25.20;94.10;;;;;;5112033;28;19916;-68
2023/10/20 01:02:13;;;;;;;;;;;25.20;94.00;;;;;;5108273;28;20451;-73
2023/10/20 01:04:40;;;;;;;;;;;25.30;94.00;;;;;;5111373;28;19970;-75
2023/10/20 01:07:07;;;;;;;;;;;25.50;94.00;;;;;;5108837;27;19907;-70
2023/10/20 01:09:33;;;;;;;;;;;25.70;93.70;;;;;;5117143;27;19907;-69
2023/10/20 01:12:00;;;;;;;;;;;25.90;93.90;;;;;;5127927;27;20428;-69
2023/10/20 01:14:26;;;;;;;;;;;26.10;93.10;;;;;;5135272;27;19964;-73
2023/10/20 01:16:54;;;;;;;;;;;26.20;92.90;;;;;;5135629;27;19998;-74
2023/10/20 01:19:20;;;;;;;;;;;26.30;92.60;;;;;;5134840;27;19914;-75
2023/10/20 01:21:47;;;;;;;;;;;26.40;92.30;;;;;;5121927;27;20387;-73
2023/10/20 01:24:14;;;;;;;;;;;26.40;91.80;;;;;;5113673;28;19912;-72
2023/10/20 01:26:43;;;;;;;;;;;26.50;92.30;;;;;;5109685;28;19957;-72
2023/10/20 01:29:12;;;;;;;;;;;26.80;91.40;;;;;;5105780;28;20271;-72
2023/10/20 01:31:39;;;;;;;;;;;26.90;91.80;;;;;;5100948;28;19919;-67
2023/10/20 01:34:05;;;;;;;;;;;27.10;91.50;;;;;;5113908;28;19908;-73
2023/10/20 01:36:32;;;;;;;;;;;27.20;90.90;;;;;;5104908;28;20280;-72
2023/10/20 01:38:59;;;;;;;;;;;27.30;91.20;;;;;;5112972;28;19916;-73
2023/10/20 01:41:26;;;;;;;;;;;27.40;90.60;;;;;;5103895;28;20287;-76
2023/10/20 01:43:53;;;;;;;;;;;27.30;90.20;;;;;;5098097;28;19942;-78
2023/10/20 01:46:19;;;;;;;;;;;27.20;90.80;;;;;;5098308;28;19918;-74
2023/10/20 01:48:46;;;;;;;;;;;27.20;90.60;;;;;;5111611;28;19924;-77
2023/10/20 01:51:13;;;;;;;;;;;27.40;90.80;;;;;;5100961;28;20284;-67
2023/10/20 01:53:40;;;;;;;;;;;27.70;91.20;;;;;;5100851;28;19927;-74
2023/10/20 01:56:06;;;;;;;;;;;28.00;89.80;;;;;;5093555;28;20380;-78
2023/10/20 01:58:33;;;;;;;;;;;28.20;90.20;;;;;;5093686;28;19937;-65
2023/10/20 02:00:59;;;;;;;;;;;28.20;88.50;;;;;;5094523;28;19912;-65
2023/10/20 02:03:26;;;;;;;;;;;28.20;89.70;;;;;;5096748;28;19999;-72
2023/10/20 02:05:53;;;;;;;;;;;28.30;88.70;;;;;;5102122;28;19908;-73
2023/10/20 02:08:19;;;;;;;;;;;28.40;89.30;;;;;;5093305;28;19912;-74
2023/10/20 02:10:46;;;;;;;;;;;28.30;88.10;;;;;;5102772;28;19958;-68
2023/10/20 02:13:13;;;;;;;;;;;28.30;89.70;;;;;;5093053;28;20353;-73
2023/10/20 02:15:45;;;;;;;;;;;28.10;88.90;;;;;;5093169;28;20001;-72
2023/10/20 02:18:11;;;;;;;;;;;28.30;88.80;;;;;;5109379;28;20498;-74
2023/10/20 02:20:38;;;;;;;;;;;28.30;87.90;;;;;;5110236;28;20042;-72
2023/10/20 02:23:05;;;;;;;;;;;28.70;88.60;;;;;;5109117;28;20326;-67
2023/10/20 02:25:31;;;;;;;;;;;28.90;86.60;;;;;;5107595;28;19908;-68
2023/10/20 02:27:58;;;;;;;;;;;28.70;85.40;;;;;;5089307;28;19916;-70
2023/10/20 02:30:25;;;;;;;;;;;28.90;86.50;;;;;;5107074;28;20334;-68
2023/10/20 02:32:51;;;;;;;;;;;29.20;84.90;;;;;;5106645;28;19916;-67
2023/10/20 02:35:18;;;;;;;;;;;29.70;86.50;;;;;;5110333;28;19919;-75
2023/10/20 02:37:44;;;;;;;;;;;30.00;82.70;;;;;;5109038;28;20382;-74
2023/10/20 02:40:11;;;;;;;;;;;30.20;82.10;;;;;;5109643;28;19915;-77
2023/10/20 02:42:38;;;;;;;;;;;29.60;82.90;;;;;;5108092;28;19923;-68
2023/10/20 02:45:10;;;;;;;;;;;30.00;83.40;;;;;;5103673;28;19935;-68
2023/10/20 02:47:37;;;;;;;;;;;30.80;81.70;;;;;;5109350;28;19926;-67
2023/10/20 02:50:06;;;;;;;;;;;31.70;81.00;;;;;;5097547;28;19965;-70
2023/10/20 02:52:33;;;;;;;;;;;32.40;78.20;;;;;;5109788;28;19947;-67
2023/10/20 02:54:59;;;;;;;;;;;33.10;77.00;;;;;;5105052;28;20280;-70
2023/10/20 02:57:26;;;;;;;;;;;33.00;76.60;;;;;;5110763;28;19919;-68
2023/10/20 02:59:53;;;;;;;;;;;34.00;75.70;;;;;;5110303;28;19919;-69
2023/10/20 03:02:22;;;;;;;;;;;35.00;72.90;;;;;;5109382;28;19945;-68
2023/10/20 03:04:52;;;;;;;;;;;36.30;69.60;;;;;;5109538;28;19950;-70
2023/10/20 03:07:24;;;;;;;;;;;36.50;67.40;;;;;;5110293;28;19946;-74
2023/10/20 03:09:54;;;;;;;;;;;36.50;66.30;;;;;;5090225;28;20276;-76
2023/10/20 03:12:21;;;;;;;;;;;35.80;66.90;;;;;;5094215;28;19920;-67
2023/10/20 03:14:48;;;;;;;;;;;36.40;65.20;;;;;;5102115;28;20007;-75
2023/10/20 03:17:14;;;;;;;;;;;36.10;65.30;;;;;;5112798;28;19912;-74
2023/10/20 03:19:43;;;;;;;;;;;36.40;64.10;;;;;;5112395;28;20002;-73
2023/10/20 03:22:10;;;;;;;;;;;37.00;64.80;;;;;;5111883;28;19916;-70
2023/10/20 03:24:36;;;;;;;;;;;36.70;63.50;;;;;;5112255;28;19911;-72
2023/10/20 03:27:03;;;;;;;;;;;37.20;61.90;;;;;;5112548;28;19931;-77
2023/10/20 03:29:30;;;;;;;;;;;37.10;61.70;;;;;;5110996;28;19908;-73
2023/10/20 03:31:56;;;;;;;;;;;37.00;61.50;;;;;;5112292;28;19951;-75
2023/10/20 03:34:23;;;;;;;;;;;36.30;62.60;;;;;;5112463;28;19908;-76
2023/10/20 03:36:52;;;;;;;;;;;35.50;61.70;;;;;;5111046;28;19908;-74
2023/10/20 03:39:21;;;;;;;;;;;34.80;63.60;;;;;;5111451;28;19941;-67
2023/10/20 03:41:52;;;;;;;;;;;35.20;63.10;;;;;;5111784;28;19942;-75
2023/10/20 03:44:21;;;;;;;;;;;35.90;62.80;;;;;;5112163;28;20336;-74
2023/10/20 03:46:56;;;;;;;;;;;37.00;61.70;;;;;;5109619;28;20437;-72
2023/10/20 03:49:23;;;;;;;;;;;37.20;61.50;;;;;;5112346;28;20481;-71
2023/10/20 03:51:49;;;;;;;;;;;37.20;60.80;;;;;;5112170;28;20383;-71
2023/10/20 03:54:17;;;;;;;;;;;37.10;61.30;;;;;;5112037;28;19912;-72
2023/10/20 03:56:43;;;;;;;;;;;36.50;61.90;;;;;;5112164;28;19950;-73
2023/10/20 03:59:10;;;;;;;;;;;36.40;60.70;;;;;;5112249;28;19908;-74
2023/10/20 04:01:40;;;;;;;;;;;36.90;61.10;;;;;;5103183;28;19955;-72
2023/10/20 04:04:10;;;;;;;;;;;37.00;60.80;;;;;;5108008;28;20254;-70
2023/10/20 04:06:36;;;;;;;;;;;37.00;60.80;;;;;;5111627;28;19912;-69
2023/10/20 04:09:08;;;;;;;;;;;37.90;60.30;;;;;;5112154;28;20305;-74
2023/10/20 04:11:38;;;;;;;;;;;38.70;60.10;;;;;;5111738;28;19919;-76
2023/10/20 04:14:06;;;;;;;;;;;38.60;59.30;;;;;;5112016;28;20380;-76
2023/10/20 04:16:39;;;;;;;;;;;37.90;60.80;;;;;;5111895;28;20287;-73
2023/10/20 04:19:15;;;;;;;;;;;37.60;60.80;;;;;;5096665;28;19912;-71
2023/10/20 04:21:43;;;;;;;;;;;36.70;60.60;;;;;;5097204;28;19928;-73
2023/10/20 04:24:11;;;;;;;;;;;34.40;63.70;;;;;;5104823;28;19912;-73
2023/10/20 04:26:38;;;;;;;;;;;33.30;65.50;;;;;;5091014;28;19916;-76
2023/10/20 05:03:53;;;;;;;;;;;33.70;67.20;;;;;;5105440;28;19931;-72
2023/10/20 05:06:22;;;;;;;;;;;33.50;67.40;;;;;;5114619;28;19923;-70
2023/10/20 05:08:49;;;;;;;;;;;33.40;68.20;;;;;;5114988;28;19908;-67
2023/10/20 05:11:16;;;;;;;;;;;32.60;69.60;;;;;;5086605;28;19912;-67
2023/10/20 05:13:43;;;;;;;;;;;32.80;69.00;;;;;;5104215;28;19945;-73
2023/10/20 05:16:10;;;;;;;;;;;32.70;68.90;;;;;;5094091;28;19917;-75
2023/10/20 05:18:37;;;;;;;;;;;32.40;68.70;;;;;;5093499;28;19919;-73
2023/10/20 05:21:05;;;;;;;;;;;33.00;69.50;;;;;;5101047;28;19916;-69
2023/10/20 05:23:33;;;;;;;;;;;33.70;67.60;;;;;;5114119;28;20368;-68
2023/10/20 05:26:02;;;;;;;;;;;33.20;67.90;;;;;;5108393;28;20289;-70
2023/10/20 05:28:29;;;;;;;;;;;32.20;70.50;;;;;;5113799;28;19914;-67
2023/10/20 05:30:57;;;;;;;;;;;32.60;69.40;;;;;;5105560;28;19973;-68
2023/10/20 05:33:27;;;;;;;;;;;33.10;69.30;;;;;;5105834;28;20313;-71
2023/10/20 05:35:53;;;;;;;;;;;33.60;67.40;;;;;;5105152;28;19912;-72
2023/10/20 05:38:20;;;;;;;;;;;34.00;68.30;;;;;;5093254;28;19919;-70
2023/10/20 05:40:56;;;;;;;;;;;34.10;67.40;;;;;;5098125;28;20390;-72
2023/10/20 05:43:24;;;;;;;;;;;33.70;68.30;;;;;;5105226;28;20280;-72
2023/10/20 05:45:51;;;;;;;;;;;33.70;68.20;;;;;;5094347;28;19912;-72
2023/10/20 05:48:17;;;;;;;;;;;32.90;70.30;;;;;;5094337;28;19977;-72
2023/10/20 05:50:44;;;;;;;;;;;33.40;70.10;;;;;;5112342;28;19955;-69
2023/10/20 05:53:11;;;;;;;;;;;33.30;68.90;;;;;;5108291;28;20387;-73
2023/10/20 05:55:38;;;;;;;;;;;33.70;69.20;;;;;;5093739;28;19912;-70
2023/10/20 05:58:06;;;;;;;;;;;33.50;69.90;;;;;;5101555;28;19907;-68
2023/10/20 06:00:33;;;;;;;;;;;34.30;68.50;;;;;;5112578;28;19911;-72
2023/10/20 06:03:00;;;;;;;;;;;34.50;67.10;;;;;;5112634;28;19961;-72
2023/10/20 06:05:26;;;;;;;;;;;33.00;69.40;;;;;;5113071;28;19907;-71
2023/10/20 06:07:53;;;;;;;;;;;33.00;70.10;;;;;;5113304;28;20003;-74
2023/10/20 06:10:22;;;;;;;;;;;32.20;71.10;;;;;;5113143;28;19912;-70
2023/10/20 06:12:50;;;;;;;;;;;32.20;71.40;;;;;;5110551;28;20284;-72
2023/10/20 06:15:16;;;;;;;;;;;30.30;75.30;;;;;;5103970;28;19912;-72
2023/10/20 06:17:44;;;;;;;;;;;30.10;75.70;;;;;;5093857;28;19923;-68
2023/10/20 06:20:11;;;;;;;;;;;30.60;75.40;;;;;;5111123;28;20406;-74
2023/10/20 06:22:38;;;;;;;;;;;30.80;74.60;;;;;;5105486;28;19920;-71
2023/10/20 06:25:10;;;;;;;;;;;30.70;75.00;;;;;;5112449;27;19911;-69
2023/10/20 06:27:37;;;;;;;;;;;30.80;74.40;;;;;;5111668;28;19908;-71
2023/10/20 06:30:07;;;;;;;;;;;31.00;73.40;;;;;;5110382;28;20360;-69
2023/10/20 06:32:43;;;;;;;;;;;30.70;74.90;;;;;;5109087;28;19912;-73
2023/10/20 06:35:12;;;;;;;;;;;30.80;74.90;;;;;;5110514;27;20303;-68
2023/10/20 06:37:54;;;;;;;;;;;31.30;74.00;;;;;;5110216;28;19980;-71
2023/10/20 06:40:21;;;;;;;;;;;30.50;74.70;;;;;;5111677;28;19981;-72
2023/10/20 06:42:47;;;;;;;;;;;30.20;76.40;;;;;;5108798;28;19916;-71
2023/10/20 06:45:14;;;;;;;;;;;30.40;75.80;;;;;;5111467;28;19912;-69
2023/10/20 06:47:41;;;;;;;;;;;30.70;76.50;;;;;;5110830;28;19915;-66
2023/10/20 06:50:10;;;;;;;;;;;30.40;76.70;;;;;;5111851;28;20337;-66
2023/10/20 06:52:36;;;;;;;;;;;29.60;77.30;;;;;;5106417;28;19915;-67
2023/10/20 06:55:07;;;;;;;;;;;29.20;79.60;;;;;;5111988;28;19973;-68
2023/10/20 06:57:34;;;;;;;;;;;28.70;80.80;;;;;;5111841;28;20322;-66
2023/10/20 07:00:00;;;;;;;;;;;28.20;82.40;;;;;;5110969;28;20374;-66
2023/10/20 07:02:27;;;;;;;;;;;27.80;83.20;;;;;;5090077;28;19927;-68
2023/10/20 07:04:55;;;;;;;;;;;27.80;83.50;;;;;;5111714;28;19912;-68
2023/10/20 07:07:22;;;;;;;;;;;27.30;84.70;;;;;;5111894;28;20292;-66
2023/10/20 07:09:48;;;;;;;;;;;27.00;86.00;;;;;;5107873;27;19912;-68
2023/10/20 07:12:15;;;;;;;;;;;26.40;88.10;;;;;;5106778;28;19996;-67
2023/10/20 07:14:43;;;;;;;;;;;25.90;89.70;;;;;;5111299;28;19923;-71
2023/10/20 07:17:11;;;;;;;;;;;25.10;91.10;;;;;;5108745;28;19933;-66
2023/10/20 07:19:38;;;;;;;;;;;24.50;92.80;;;;;;5110017;28;19912;-67
2023/10/20 07:22:05;;;;;;;;;;;24.00;94.20;;;;;;5106785;28;19920;-70
2023/10/20 07:24:32;;;;;;;;;;;23.60;95.70;;;;;;5091884;28;20413;-69
2023/10/20 07:26:59;;;;;;;;;;;23.40;97.00;;;;;;5111387;28;19923;-65
2023/10/20 07:29:26;;;;;;;;;;;23.40;98.00;;;;;;5108503;28;19914;-71
2023/10/20 07:31:53;;;;;;;;;;;23.20;99.00;;;;;;5107260;28;19972;-70
2023/10/20 07:34:21;;;;;;;;;;;23.20;99.80;;;;;;5110974;28;19911;-67
2023/10/20 07:36:47;;;;;;;;;;;23.20;99.90;;;;;;5103420;28;19912;-67
2023/10/20 07:39:16;;;;;;;;;;;23.00;99.90;;;;;;5110627;28;20322;-68
2023/10/20 07:41:44;;;;;;;;;;;22.80;99.90;;;;;;5087725;28;19959;-68
2023/10/20 07:44:11;;;;;;;;;;;22.80;99.90;;;;;;5107826;28;19964;-67
2023/10/20 07:46:38;;;;;;;;;;;22.80;99.90;;;;;;5109220;28;20520;-68
2023/10/20 07:49:05;;;;;;;;;;;22.60;99.90;;;;;;5105108;28;19938;-68
2023/10/20 07:51:32;;;;;;;;;;;22.50;99.90;;;;;;5110564;28;19934;-68
2023/10/20 07:53:58;;;;;;;;;;;22.50;99.90;;;;;;5108779;28;19954;-66
2023/10/20 07:56:25;;;;;;;;;;;22.40;99.90;;;;;;5109931;28;19919;-71
2023/10/20 07:58:51;;;;;;;;;;;22.30;99.90;;;;;;5110150;28;19947;-65
2023/10/20 08:01:19;;;;;;;;;;;22.30;99.90;;;;;;5110633;28;20004;-66
2023/10/20 08:03:47;;;;;;;;;;;22.20;99.90;;;;;;5110672;28;19924;-67
2023/10/20 08:06:14;;;;;;;;;;;22.10;99.90;;;;;;5108321;28;19908;-71
2023/10/20 08:08:41;;;;;;;;;;;22.10;99.90;;;;;;5108973;28;19911;-67
2023/10/20 08:11:08;;;;;;;;;;;22.00;99.90;;;;;;5108809;28;19919;-69
2023/10/20 08:13:35;;;;;;;;;;;21.90;99.90;;;;;;5110337;28;19920;-67
2023/10/20 08:16:03;;;;;;;;;;;21.80;99.90;;;;;;5112361;28;19912;-70
2023/10/20 08:18:33;;;;;;;;;;;21.70;99.90;;;;;;5112844;28;19915;-66
2023/10/20 08:21:07;;;;;;;;;;;21.80;99.90;;;;;;5110512;28;19947;-67
2023/10/20 08:23:34;;;;;;;;;;;21.70;99.90;;;;;;5114808;28;19920;-70
2023/10/20 08:26:01;;;;;;;;;;;21.70;99.90;;;;;;5112717;28;19918;-72
2023/10/20 08:28:28;;;;;;;;;;;21.60;99.90;;;;;;5113131;28;20040;-69
2023/10/20 08:31:13;;;;;;;;;;;21.60;99.90;;;;;;5113786;28;19911;-73
2023/10/20 08:33:40;;;;;;;;;;;21.60;99.90;;;;;;5114950;27;20376;-72
2023/10/20 08:36:14;;;;;;;;;;;21.60;99.90;;;;;;5116435;27;19912;-68
2023/10/20 08:38:45;;;;;;;;;;;21.50;99.90;;;;;;5110286;27;19920;-69
2023/10/20 08:41:13;;;;;;;;;;;21.50;99.90;;;;;;5112642;28;20253;-66
2023/10/20 08:43:40;;;;;;;;;;;21.50;99.90;;;;;;5114442;28;19911;-68
2023/10/20 08:46:10;;;;;;;;;;;21.40;99.90;;;;;;5112733;28;19912;-70
2023/10/20 08:48:40;;;;;;;;;;;21.30;99.90;;;;;;5111348;28;19927;-70
2023/10/20 08:51:08;;;;;;;;;;;21.30;99.90;;;;;;5109858;28;20319;-70
2023/10/20 08:53:36;;;;;;;;;;;21.30;99.90;;;;;;5094390;28;19934;-68
2023/10/20 08:56:07;;;;;;;;;;;21.20;99.90;;;;;;5113465;27;19961;-71
2023/10/20 08:58:34;;;;;;;;;;;21.20;99.90;;;;;;5106852;28;19912;-71
2023/10/20 09:01:02;;;;;;;;;;;21.20;99.90;;;;;;5096307;27;19961;-64
2023/10/20 09:03:37;;;;;;;;;;;21.20;99.90;;;;;;5108606;28;19919;-66
2023/10/20 09:06:05;;;;;;;;;;;21.20;99.90;;;;;;5113534;27;20006;-66
2023/10/20 09:08:32;;;;;;;;;;;21.10;99.90;;;;;;5105442;28;19916;-68
2023/10/20 09:10:59;;;;;;;;;;;21.10;99.90;;;;;;5107338;27;19951;-67
2023/10/20 09:13:34;;;;;;;;;;;21.10;99.90;;;;;;5110830;28;20310;-68
2023/10/20 09:16:07;;;;;;;;;;;21.00;99.90;;;;;;5110868;27;19995;-67
2023/10/20 09:18:43;;;;;;;;;;;21.00;99.90;;;;;;5110017;28;19912;-69
2023/10/20 09:21:12;;;;;;;;;;;20.90;99.90;;;;;;5112662;27;19908;-69
2023/10/20 09:23:39;;;;;;;;;;;21.00;99.90;;;;;;5113687;28;19919;-68
2023/10/20 09:26:06;;;;;;;;;;;20.90;99.90;;;;;;5095108;28;20010;-71
2023/10/20 09:28:32;;;;;;;;;;;21.00;99.90;;;;;;5108348;28;19926;-70
2023/10/20 09:30:59;;;;;;;;;;;21.00;99.90;;;;;;5112148;27;19947;-70
2023/10/20 09:33:26;;;;;;;;;;;20.90;99.90;;;;;;5112412;28;19994;-72
2023/10/20 09:35:53;;;;;;;;;;;20.80;99.90;;;;;;5110652;28;19923;-72
2023/10/20 09:38:24;;;;;;;;;;;20.90;99.90;;;;;;5108797;28;20402;-75
2023/10/20 09:40:54;;;;;;;;;;;20.90;99.90;;;;;;5112003;28;19916;-73
2023/10/20 09:43:28;;;;;;;;;;;20.80;99.90;;;;;;5104811;28;19920;-73
2023/10/20 09:46:10;;;;;;;;;;;20.80;99.90;;;;;;5110702;27;20104;-72
2023/10/20 09:48:40;;;;;;;;;;;20.80;99.90;;;;;;5110904;28;19927;-71
2023/10/20 09:51:08;;;;;;;;;;;20.80;99.90;;;;;;5113148;28;19914;-70
2023/10/20 09:53:35;;;;;;;;;;;20.80;99.90;;;;;;5111044;27;19907;-71
2023/10/20 09:56:02;;;;;;;;;;;20.90;99.90;;;;;;5112410;28;20121;-67
2023/10/20 09:58:34;;;;;;;;;;;20.90;99.90;;;;;;5112428;27;19915;-70
2023/10/20 10:01:00;;;;;;;;;;;20.90;99.90;;;;;;5112695;28;19951;-72
2023/10/20 10:03:51;;;;;;;;;;;21.00;99.90;;;;;;5113171;27;20582;-69
2023/10/20 10:06:17;;;;;;;;;;;21.00;99.90;;;;;;5110441;28;19912;-74
2023/10/20 10:08:44;;;;;;;;;;;21.00;99.90;;;;;;5110747;27;19942;-69
2023/10/20 10:11:20;;;;;;;;;;;20.90;99.90;;;;;;5110510;28;19956;-69
2023/10/20 10:13:52;;;;;;;;;;;21.00;99.90;;;;;;5112639;27;19981;-71
2023/10/20 10:16:19;;;;;;;;;;;20.90;99.90;;;;;;5111465;28;19911;-73
2023/10/20 10:18:46;;;;;;;;;;;20.90;99.90;;;;;;5112114;28;19912;-71
2023/10/20 10:21:26;;;;;;;;;;;20.80;99.90;;;;;;5109876;28;19957;-71
2023/10/20 10:24:09;;;;;;;;;;;20.90;99.90;;;;;;5109824;28;19920;-69
2023/10/20 10:26:46;;;;;;;;;;;20.90;99.90;;;;;;5110198;28;19912;-71
2023/10/20 10:29:12;;;;;;;;;;;21.00;99.90;;;;;;5109473;28;20308;-69
2023/10/20 10:31:40;;;;;;;;;;;20.90;99.90;;;;;;5112340;28;20002;-69
2023/10/20 10:34:07;;;;;;;;;;;20.90;99.90;;;;;;5111920;28;19957;-65
2023/10/20 10:36:43;;;;;;;;;;;20.90;99.90;;;;;;5104677;28;20413;-71
2023/10/20 10:39:19;;;;;;;;;;;20.90;99.90;;;;;;5111590;28;19999;-72
2023/10/20 10:41:47;;;;;;;;;;;20.80;99.90;;;;;;5111816;28;20284;-74
2023/10/20 10:44:13;;;;;;;;;;;20.70;99.90;;;;;;5106548;28;19922;-68
2023/10/20 10:46:40;;;;;;;;;;;20.70;99.90;;;;;;5111991;28;19919;-66
2023/10/20 10:49:09;;;;;;;;;;;20.70;99.90;;;;;;5087404;28;19920;-68
2023/10/20 10:51:55;;;;;;;;;;;20.70;99.90;;;;;;5089402;28;20312;-65
2023/10/20 10:54:23;;;;;;;;;;;20.60;99.90;;;;;;5090044;28;19962;-75
2023/10/20 10:56:50;;;;;;;;;;;20.60;99.90;;;;;;5090333;28;19912;-73
2023/10/20 10:59:19;;;;;;;;;;;20.60;99.90;;;;;;5091990;28;19998;-68
2023/10/20 11:01:46;;;;;;;;;;;20.50;99.90;;;;;;5091890;28;19916;-67
2023/10/20 11:04:13;;;;;;;;;;;20.50;99.90;;;;;;5088057;28;19916;-66
2023/10/20 11:06:40;;;;;;;;;;;20.50;99.90;;;;;;5091921;28;20022;-64
2023/10/20 11:09:10;;;;;;;;;;;20.50;99.90;;;;;;5091509;28;19913;-68
2023/10/20 11:11:42;;;;;;;;;;;20.40;99.90;;;;;;5085173;28;19954;-68
2023/10/20 11:14:12;;;;;;;;;;;20.50;99.90;;;;;;5086303;28;20360;-69
2023/10/20 11:16:38;;;;;;;;;;;20.50;99.90;;;;;;5079250;28;19948;-63
2023/10/20 11:19:05;;;;;;;;;;;20.40;99.90;;;;;;5086751;28;20485;-72
2023/10/20 11:21:45;;;;;;;;;;;20.40;99.90;;;;;;5087660;28;19920;-70
2023/10/20 11:24:11;;;;;;;;;;;20.50;99.90;;;;;;5089722;28;20440;-71
2023/10/20 11:26:38;;;;;;;;;;;20.40;99.90;;;;;;5092312;28;19991;-68
2023/10/20 11:29:08;;;;;;;;;;;20.30;99.90;;;;;;5091255;28;20265;-71
2023/10/20 11:31:35;;;;;;;;;;;20.40;99.90;;;;;;5078769;28;19913;-71
2023/10/20 11:34:02;;;;;;;;;;;20.40;99.90;;;;;;5072298;28;19913;-69
2023/10/20 11:36:28;;;;;;;;;;;20.40;99.90;;;;;;5072356;28;19908;-73
2023/10/20 11:38:55;;;;;;;;;;;20.40;99.90;;;;;;5072388;28;19916;-70
2023/10/20 11:41:21;;;;;;;;;;;20.40;99.90;;;;;;5074443;28;19908;-72
2023/10/20 11:43:48;;;;;;;;;;;20.40;99.90;;;;;;5092246;28;19995;-70
2023/10/20 11:46:15;;;;;;;;;;;20.40;99.90;;;;;;5092388;28;19912;-71
2023/10/20 11:48:41;;;;;;;;;;;20.40;99.90;;;;;;5094394;28;19944;-69
2023/10/20 11:51:08;;;;;;;;;;;20.40;99.90;;;;;;5107206;28;19908;-69
2023/10/20 11:53:35;;;;;;;;;;;20.40;99.90;;;;;;5116056;28;19907;-70
2023/10/20 11:56:01;;;;;;;;;;;20.40;99.90;;;;;;5116928;28;20360;-69
2023/10/20 11:58:28;;;;;;;;;;;20.40;99.90;;;;;;5101511;28;19954;-71
2023/10/20 12:00:55;;;;;;;;;;;20.30;99.90;;;;;;5096035;28;19912;-71
2023/10/20 12:03:22;;;;;;;;;;;20.30;99.90;;;;;;5096190;28;20381;-71
2023/10/20 12:05:48;;;;;;;;;;;20.20;99.90;;;;;;5111186;28;20276;-70
2023/10/20 12:08:16;;;;;;;;;;;20.10;99.90;;;;;;5115892;28;20253;-67
2023/10/20 12:10:43;;;;;;;;;;;20.10;99.90;;;;;;5116305;28;19919;-70
2023/10/20 12:13:10;;;;;;;;;;;20.10;99.90;;;;;;5098328;28;19908;-69
2023/10/20 12:15:37;;;;;;;;;;;20.10;99.90;;;;;;5104315;28;20003;-71
2023/10/20 12:18:06;;;;;;;;;;;20.00;99.90;;;;;;5097656;28;20383;-74
2023/10/20 12:20:33;;;;;;;;;;;20.00;99.90;;;;;;5095989;28;19943;-73
2023/10/20 12:23:00;;;;;;;;;;;20.00;99.90;;;;;;5102325;28;20384;-74
2023/10/20 12:25:27;;;;;;;;;;;20.10;99.90;;;;;;5095587;28;19914;-69
2023/10/20 12:27:54;;;;;;;;;;;20.00;99.90;;;;;;5095441;28;19990;-72
2023/10/20 12:30:20;;;;;;;;;;;20.00;99.90;;;;;;5095954;28;19912;-73
2023/10/20 12:32:47;;;;;;;;;;;19.90;99.90;;;;;;5095717;28;20007;-71
2023/10/20 12:35:14;;;;;;;;;;;20.00;99.90;;;;;;5095593;28;19915;-67
2023/10/20 12:37:41;;;;;;;;;;;20.00;99.90;;;;;;5096024;28;19908;-70
2023/10/20 12:40:08;;;;;;;;;;;19.90;99.90;;;;;;5105066;28;20417;-73
2023/10/20 12:42:36;;;;;;;;;;;19.80;99.90;;;;;;5115909;28;20283;-67
2023/10/20 12:45:04;;;;;;;;;;;19.80;99.90;;;;;;5109671;28;20086;-70
2023/10/20 12:47:32;;;;;;;;;;;19.80;99.90;;;;;;5095089;28;19913;-65
2023/10/20 12:49:59;;;;;;;;;;;19.80;99.90;;;;;;5095364;28;20268;-72
2023/10/20 12:52:25;;;;;;;;;;;19.70;99.90;;;;;;5095132;28;19993;-67
2023/10/20 12:54:52;;;;;;;;;;;19.70;99.90;;;;;;5094164;28;19915;-70
2023/10/20 12:57:19;;;;;;;;;;;19.70;99.90;;;;;;5094627;28;19912;-68
2023/10/20 12:59:46;;;;;;;;;;;19.70;99.90;;;;;;5094054;28;19908;-66
2023/10/20 13:02:12;;;;;;;;;;;19.70;99.90;;;;;;5096049;28;19927;-67
2023/10/20 13:04:39;;;;;;;;;;;19.70;99.90;;;;;;5113819;28;19912;-66
2023/10/20 13:07:06;;;;;;;;;;;19.70;99.90;;;;;;5112239;28;19911;-71
2023/10/20 13:09:33;;;;;;;;;;;19.70;99.90;;;;;;5112903;28;19912;-72
2023/10/20 13:11:59;;;;;;;;;;;19.70;99.90;;;;;;5114998;28;19912;-72
2023/10/20 13:14:27;;;;;;;;;;;19.80;99.90;;;;;;5114783;28;20000;-74
2023/10/20 13:16:54;;;;;;;;;;;19.70;99.90;;;;;;5096598;28;19930;-72
2023/10/20 13:19:21;;;;;;;;;;;19.70;99.90;;;;;;5115257;28;19908;-71
2023/10/20 13:21:47;;;;;;;;;;;19.70;99.90;;;;;;5114371;28;20276;-72
2023/10/20 13:24:14;;;;;;;;;;;19.60;99.90;;;;;;5115231;28;19911;-71
2023/10/20 13:26:41;;;;;;;;;;;19.60;99.90;;;;;;5115119;28;19908;-73
2023/10/20 13:29:07;;;;;;;;;;;19.60;99.90;;;;;;5115234;28;19912;-70
2023/10/20 13:31:34;;;;;;;;;;;19.60;99.90;;;;;;5115234;28;19930;-71
2023/10/20 13:34:02;;;;;;;;;;;19.50;99.90;;;;;;5114709;28;19998;-71
2023/10/20 13:36:29;;;;;;;;;;;19.50;99.90;;;;;;5114546;28;19916;-72
2023/10/20 13:38:55;;;;;;;;;;;19.50;99.90;;;;;;5101953;28;19923;-73
2023/10/20 13:41:23;;;;;;;;;;;19.50;99.90;;;;;;5104625;27;20242;-72
2023/10/20 13:43:51;;;;;;;;;;;19.40;99.90;;;;;;5110862;28;19912;-67
2023/10/20 13:46:18;;;;;;;;;;;19.40;99.90;;;;;;5098202;28;19919;-73
2023/10/20 13:48:44;;;;;;;;;;;19.40;99.90;;;;;;5094274;28;19927;-73
2023/10/20 13:51:11;;;;;;;;;;;19.30;99.90;;;;;;5094352;28;19908;-72
2023/10/20 13:53:37;;;;;;;;;;;19.30;99.90;;;;;;5112535;28;19908;-71
2023/10/20 13:56:04;;;;;;;;;;;19.20;99.90;;;;;;5114609;28;19912;-72
2023/10/20 13:58:31;;;;;;;;;;;19.20;99.90;;;;;;5114987;28;19908;-70
2023/10/20 14:00:58;;;;;;;;;;;19.20;99.90;;;;;;5114638;28;20280;-70
2023/10/20 14:03:25;;;;;;;;;;;19.20;99.90;;;;;;5114772;28;19916;-69
2023/10/20 14:05:54;;;;;;;;;;;19.20;99.90;;;;;;5112221;28;19912;-70
2023/10/20 14:08:21;;;;;;;;;;;19.10;99.90;;;;;;5114385;28;20002;-71
2023/10/20 14:10:48;;;;;;;;;;;19.10;99.90;;;;;;5114449;28;19961;-71
2023/10/20 14:13:15;;;;;;;;;;;19.10;99.90;;;;;;5113367;28;20003;-71
2023/10/20 14:15:43;;;;;;;;;;;19.10;99.90;;;;;;5114254;28;20313;-72
2023/10/20 14:18:10;;;;;;;;;;;19.10;99.90;;;;;;5114399;28;19930;-70
2023/10/20 14:20:38;;;;;;;;;;;19.10;99.90;;;;;;5114482;28;19999;-72
2023/10/20 14:23:05;;;;;;;;;;;19.10;99.90;;;;;;5114083;28;20385;-71
2023/10/20 14:25:32;;;;;;;;;;;19.10;99.90;;;;;;5114334;28;19964;-71
2023/10/20 14:27:58;;;;;;;;;;;19.10;99.90;;;;;;5114096;28;19990;-70
2023/10/20 14:30:25;;;;;;;;;;;19.00;99.90;;;;;;5114117;28;20391;-72
2023/10/20 14:32:52;;;;;;;;;;;19.00;99.90;;;;;;5113463;28;20261;-71
2023/10/20 14:35:18;;;;;;;;;;;19.10;99.90;;;;;;5108903;28;19919;-71
2023/10/20 14:37:45;;;;;;;;;;;19.00;99.90;;;;;;5093089;28;19931;-72
2023/10/20 14:40:12;;;;;;;;;;;19.10;99.90;;;;;;5093731;28;20493;-73
2023/10/20 14:42:38;;;;;;;;;;;19.00;99.90;;;;;;5093133;28;19969;-71
2023/10/20 14:45:06;;;;;;;;;;;19.00;99.90;;;;;;5093585;28;19991;-73
2023/10/20 14:47:32;;;;;;;;;;;18.90;99.90;;;;;;5093085;28;19954;-72
2023/10/20 14:49:59;;;;;;;;;;;18.90;99.90;;;;;;5093478;28;19912;-71
2023/10/20 14:52:28;;;;;;;;;;;18.80;99.90;;;;;;5093169;28;19918;-72
2023/10/20 14:54:55;;;;;;;;;;;18.80;99.90;;;;;;5092552;28;19909;-73